Time;durP1;ratioP1;P1;durP2;ratioP2;P2;SDS_P1;SDS_P2;PMS_P1;PMS_P2;Temp;Humidity;BMP_temperature;BMP_pressure;BME280_temperature;BME280_humidity;BME280_pressure;Samples;Min_cycle;Max_cycle;Signal;HPM_P1;HPM_P2
2022/04/13 00:00:08;;;;;;;4.83;3.50;;;;;;;13.66;72.41;98330.09;4995596;28;102509;-74
2022/04/13 00:02:37;;;;;;;5.53;4.70;;;;;;;13.61;72.44;98332.31;4998056;28;102690;-74
2022/04/13 00:05:08;;;;;;;8.13;4.90;;;;;;;13.50;72.55;98324.47;4993879;28;103967;-75
2022/04/13 00:07:36;;;;;;;6.53;4.30;;;;;;;13.42;73.16;98325.16;5000569;28;103251;-66
2022/04/13 00:10:07;;;;;;;5.40;4.90;;;;;;;13.97;70.81;98323.66;4971937;28;103397;-66
2022/04/13 00:12:35;;;;;;;6.10;5.22;;;;;;;13.90;70.64;98325.19;4998756;28;103703;-66
2022/04/13 00:15:06;;;;;;;6.70;5.30;;;;;;;14.03;69.81;98333.72;4997771;28;103800;-66
2022/04/13 00:17:36;;;;;;;8.00;5.47;;;;;;;14.06;68.69;98321.97;4975352;28;104274;-75
2022/04/13 00:20:05;;;;;;;8.07;6.25;;;;;;;13.56;70.32;98323.94;4995689;28;102690;-75
2022/04/13 00:22:34;;;;;;;5.70;5.13;;;;;;;14.17;68.83;98327.13;4992372;28;102648;-66
2022/04/13 00:25:02;;;;;;;5.93;5.32;;;;;;;14.28;67.39;98322.50;4990281;28;103316;-66
2022/04/13 00:27:30;;;;;;;5.93;5.32;;;;;;;14.45;66.73;98329.78;4998119;28;103604;-66
2022/04/13 00:29:58;;;;;;;4.82;4.38;;;;;;;14.76;65.75;98333.03;4998642;28;102565;-66
2022/04/13 00:32:26;;;;;;;5.73;5.23;;;;;;;14.81;65.71;98329.91;4996401;28;102744;-66
2022/04/13 00:34:54;;;;;;;5.10;4.57;;;;;;;14.95;65.23;98332.09;4975397;28;104138;-74
2022/04/13 00:37:22;;;;;;;4.93;4.53;;;;;;;15.00;64.92;98332.50;4974497;28;103887;-66
2022/04/13 00:39:51;;;;;;;4.70;4.30;;;;;;;15.05;64.89;98319.59;4969542;28;103802;-66
2022/04/13 00:42:19;;;;;;;3.65;3.35;;;;;;;15.15;64.19;98328.38;4995293;28;103675;-75
2022/04/13 00:44:48;;;;;;;5.43;4.93;;;;;;;15.10;64.71;98320.00;4972007;28;104196;-66
2022/04/13 00:47:18;;;;;;;7.30;6.10;;;;;;;14.88;65.11;98325.69;4991865;28;103301;-67
2022/04/13 00:49:46;;;;;;;6.82;6.18;;;;;;;14.84;65.94;98321.66;4998470;28;102719;-66
2022/04/13 00:52:16;;;;;;;5.70;5.20;;;;;;;15.01;65.19;98310.25;4979514;28;104081;-74
2022/04/13 00:54:48;;;;;;;6.10;5.45;;;;;;;14.92;65.41;98317.28;4972055;28;104259;-75
2022/04/13 00:57:19;;;;;;;5.45;4.95;;;;;;;15.08;64.83;98313.97;4993900;28;103307;-66
2022/04/13 00:59:48;;;;;;;5.50;5.00;;;;;;;15.10;64.73;98320.81;4991530;28;102726;-66
2022/04/13 01:02:17;;;;;;;6.10;5.22;;;;;;;15.18;64.20;98313.94;4994549;28;103610;-66
2022/04/13 01:04:46;;;;;;;6.03;5.43;;;;;;;15.15;63.73;98325.72;4996759;28;103758;-74
2022/04/13 01:07:17;;;;;;;5.60;4.82;;;;;;;15.05;64.61;98319.59;4977457;28;102953;-74
2022/04/13 01:09:45;;;;;;;8.50;6.63;;;;;;;14.52;65.94;98317.56;4992725;28;102975;-66
2022/04/13 01:12:13;;;;;;;7.53;5.60;;;;;;;14.33;67.34;98324.75;4992090;28;102701;-66
2022/04/13 01:14:42;;;;;;;6.25;5.65;;;;;;;14.54;66.61;98321.91;4993992;28;104089;-75
2022/04/13 01:17:10;;;;;;;5.45;4.93;;;;;;;14.84;65.12;98335.78;4996338;28;103203;-66
2022/04/13 01:19:39;;;;;;;6.93;5.57;;;;;;;14.87;65.18;98332.00;4995423;28;103805;-66
2022/04/13 01:22:19;;;;;;;5.32;4.82;;;;;;;14.88;65.19;98331.00;4992938;28;103646;-74
2022/04/13 01:24:48;;;;;;;5.97;5.03;;;;;;;14.93;65.40;98334.06;4994007;28;104114;-75
2022/04/13 01:27:16;;;;;;;6.83;5.53;;;;;;;14.77;65.35;98341.81;4975001;28;104315;-75
2022/04/13 01:29:45;;;;;;;8.05;6.25;;;;;;;13.87;69.59;98349.34;4994984;28;102609;-67
2022/04/13 01:32:14;;;;;;;7.22;6.13;;;;;;;13.94;68.79;98345.19;4996901;28;102689;-66
2022/04/13 01:34:49;;;;;;;7.10;6.40;;;;;;;13.88;68.57;98356.34;4969940;28;104803;-66
2022/04/13 01:37:21;;;;;;;6.73;6.07;;;;;;;13.74;69.48;98344.34;4967910;28;103650;-75
2022/04/13 01:39:49;;;;;;;5.40;4.90;;;;;;;14.10;68.13;98356.06;4994901;28;102655;-75
2022/04/13 01:42:17;;;;;;;6.88;6.18;;;;;;;13.60;70.30;98355.38;4995702;28;102726;-75
2022/04/13 01:44:45;;;;;;;8.00;6.33;;;;;;;13.61;70.26;98364.16;4997047;28;104067;-66
2022/04/13 01:47:13;;;;;;;7.75;6.70;;;;;;;13.35;71.15;98359.38;4977259;28;103064;-66
2022/04/13 01:49:42;;;;;;;7.97;7.03;;;;;;;12.49;74.60;98364.28;4968639;28;102899;-66
2022/04/13 01:52:11;;;;;;;5.82;5.10;;;;;;;13.48;71.14;98364.41;5000607;28;102951;-66
2022/04/13 01:54:40;;;;;;;5.23;4.73;;;;;;;13.89;68.90;98363.34;4976162;28;103509;-66
2022/04/13 01:57:08;;;;;;;6.45;5.28;;;;;;;13.97;68.45;98363.50;4998113;28;103222;-74
2022/04/13 01:59:36;;;;;;;8.68;6.35;;;;;;;13.36;70.16;98365.53;4999875;28;102997;-75
2022/04/13 02:02:05;;;;;;;5.43;4.93;;;;;;;13.21;72.28;98373.03;4995519;28;102714;-66
2022/04/13 02:04:34;;;;;;;5.77;4.80;;;;;;;13.63;69.50;98372.81;4995535;28;104221;-66
2022/04/13 02:07:02;;;;;;;4.50;4.10;;;;;;;13.86;68.95;98369.78;4997890;28;103575;-66
2022/04/13 02:09:30;;;;;;;5.30;4.80;;;;;;;13.92;68.63;98371.03;4999594;28;102618;-74
2022/04/13 02:12:00;;;;;;;6.13;4.67;;;;;;;13.84;69.15;98376.19;4980292;28;103121;-66
2022/04/13 02:14:31;;;;;;;4.50;3.90;;;;;;;13.92;68.57;98379.81;4993948;28;103260;-66
2022/04/13 02:17:01;;;;;;;8.13;5.20;;;;;;;13.95;68.70;98384.00;4969332;28;105304;-66
2022/04/13 02:19:29;;;;;;;4.70;4.30;;;;;;;13.97;68.23;98382.09;4996251;28;103159;-66
2022/04/13 02:21:57;;;;;;;6.67;6.00;;;;;;;13.65;69.33;98392.09;4976325;28;102954;-66
2022/04/13 02:24:25;;;;;;;7.63;6.47;;;;;;;13.12;72.41;98388.88;4996993;28;103522;-66
2022/04/13 02:26:53;;;;;;;5.95;5.45;;;;;;;13.34;71.71;98388.69;4999957;28;103225;-66
2022/04/13 02:29:25;;;;;;;8.18;7.00;;;;;;;12.00;76.14;98383.47;4994884;28;102568;-76
2022/04/13 02:31:53;;;;;;;7.35;6.65;;;;;;;12.17;76.68;98396.16;4999774;28;102799;-74
2022/04/13 02:34:21;;;;;;;5.85;5.32;;;;;;;12.82;74.42;98391.53;4999112;28;104368;-74
2022/04/13 02:36:49;;;;;;;5.35;4.85;;;;;;;13.16;72.08;98385.84;4976844;28;104137;-75
2022/04/13 02:39:17;;;;;;;6.07;5.47;;;;;;;12.98;72.55;98390.06;4992088;28;102882;-75
2022/04/13 02:41:44;;;;;;;5.68;5.13;;;;;;;13.15;71.86;98388.63;4995190;28;103870;-65
2022/04/13 02:44:12;;;;;;;5.50;4.25;;;;;;;13.30;70.87;98393.41;4975717;28;104155;-75
2022/04/13 02:46:44;;;;;;;4.40;4.00;;;;;;;13.33;70.58;98393.13;5001294;28;103926;-75
2022/04/13 02:49:12;;;;;;;9.63;5.95;;;;;;;13.11;70.64;98389.84;4996534;28;103073;-66
2022/04/13 02:51:42;;;;;;;6.05;5.45;;;;;;;13.00;71.82;98390.75;4998024;28;104092;-66
2022/04/13 02:54:10;;;;;;;5.50;5.00;;;;;;;12.96;72.10;98399.97;4974900;28;104040;-75
2022/04/13 02:56:38;;;;;;;6.07;4.95;;;;;;;12.30;75.57;98393.28;4996028;28;104430;-65
2022/04/13 02:59:09;;;;;;;4.30;3.90;;;;;;;12.81;73.39;98395.97;5000348;28;102671;-66
2022/04/13 03:01:36;;;;;;;4.50;3.97;;;;;;;13.08;72.07;98396.25;4996024;28;102724;-66
2022/04/13 03:04:06;;;;;;;6.55;5.10;;;;;;;12.56;73.90;98396.41;4996779;28;103332;-66
2022/04/13 03:06:34;;;;;;;5.60;5.10;;;;;;;11.79;78.35;98390.50;4974727;28;104132;-74
2022/04/13 03:09:03;;;;;;;4.33;3.93;;;;;;;12.51;75.33;98393.31;4999030;28;102965;-74
2022/04/13 03:11:31;;;;;;;5.70;4.60;;;;;;;12.47;74.36;98395.38;4981208;28;104591;-75
2022/04/13 03:13:59;;;;;;;5.10;4.60;;;;;;;12.70;73.25;98394.25;4998537;28;103527;-74
2022/04/13 03:16:27;;;;;;;4.07;3.63;;;;;;;12.85;72.07;98392.09;4978947;28;103512;-75
2022/04/13 03:18:55;;;;;;;4.55;3.85;;;;;;;12.71;71.81;98395.09;4995686;28;102725;-75
2022/04/13 03:21:25;;;;;;;4.03;3.63;;;;;;;12.76;72.62;98400.84;4999686;28;103068;-74
2022/04/13 03:23:53;;;;;;;4.60;4.20;;;;;;;12.73;72.55;98396.66;4994476;28;104211;-75
2022/04/13 03:26:21;;;;;;;6.10;4.80;;;;;;;11.95;76.74;98401.53;5000399;28;103239;-75
2022/04/13 03:28:49;;;;;;;4.97;3.88;;;;;;;12.44;74.58;98402.72;4972045;28;102571;-75
2022/04/13 03:31:17;;;;;;;4.53;4.13;;;;;;;12.29;74.91;98393.44;5000597;28;103960;-75
2022/04/13 03:33:45;;;;;;;4.90;4.25;;;;;;;12.07;74.88;98395.22;4971631;28;104262;-74
2022/04/13 03:36:16;;;;;;;4.93;4.20;;;;;;;11.68;76.89;98398.47;4989276;28;103376;-75
2022/04/13 03:38:45;;;;;;;4.80;4.00;;;;;;;11.90;76.69;98398.41;4992509;28;102638;-75
2022/04/13 03:41:13;;;;;;;4.95;4.00;;;;;;;11.81;76.98;98404.47;4996811;28;104232;-75
2022/04/13 03:43:41;;;;;;;4.95;4.03;;;;;;;11.28;79.09;98400.00;4975854;28;103282;-75
2022/04/13 03:46:09;;;;;;;5.70;3.90;;;;;;;11.34;79.40;98400.34;4970095;28;103218;-75
2022/04/13 03:48:37;;;;;;;4.55;3.65;;;;;;;11.57;78.21;98398.50;4999391;28;102971;-75
2022/04/13 03:51:05;;;;;;;4.53;3.80;;;;;;;11.39;78.11;98398.19;4994195;28;103012;-65
2022/04/13 03:53:33;;;;;;;3.73;3.33;;;;;;;11.36;79.76;98402.88;4999650;28;104097;-66
2022/04/13 03:56:02;;;;;;;4.73;3.40;;;;;;;11.69;77.39;98404.59;4998767;28;103241;-75
2022/04/13 03:58:31;;;;;;;4.40;3.47;;;;;;;11.41;79.14;98400.69;4996824;28;102687;-65
2022/04/13 04:00:59;;;;;;;3.85;3.13;;;;;;;11.89;76.94;98396.75;4987943;28;102648;-75
2022/04/13 04:03:27;;;;;;;3.83;3.40;;;;;;;12.14;74.99;98395.56;4996364;28;103387;-65
2022/04/13 04:05:58;;;;;;;3.05;2.75;;;;;;;12.28;74.03;98397.03;4977472;28;103943;-65
2022/04/13 04:08:27;;;;;;;5.47;4.30;;;;;;;11.76;75.29;98411.94;4993575;28;102731;-65
2022/04/13 04:10:56;;;;;;;3.63;3.20;;;;;;;12.02;75.04;98412.44;4976869;28;103983;-65
2022/04/13 04:13:25;;;;;;;2.80;2.60;;;;;;;12.19;73.94;98407.44;4994811;28;103209;-65
2022/04/13 04:15:53;;;;;;;3.80;3.40;;;;;;;12.01;74.82;98406.31;4998388;28;103652;-65
2022/04/13 04:18:21;;;;;;;3.20;2.53;;;;;;;12.21;73.39;98405.50;4997143;28;102677;-64
2022/04/13 04:20:49;;;;;;;6.73;3.80;;;;;;;11.96;75.00;98407.66;4996611;28;104000;-64
2022/04/13 04:23:17;;;;;;;6.70;4.65;;;;;;;11.46;76.78;98409.09;4994017;28;104467;-63
2022/04/13 04:25:45;;;;;;;5.07;4.40;;;;;;;11.23;78.46;98413.56;4997460;28;103496;-64
2022/04/13 04:28:15;;;;;;;3.63;3.33;;;;;;;11.78;76.02;98414.47;4992918;28;102874;-71
2022/04/13 04:30:45;;;;;;;5.40;4.35;;;;;;;11.52;76.52;98413.91;4998652;28;103947;-71
2022/04/13 04:33:14;;;;;;;5.23;4.60;;;;;;;11.49;75.66;98406.19;4994551;28;104495;-71
2022/04/13 04:35:46;;;;;;;4.18;3.60;;;;;;;11.81;74.89;98415.06;4995407;28;103473;-70
2022/04/13 04:38:14;;;;;;;5.25;3.97;;;;;;;11.79;74.51;98413.50;4992057;28;102644;-71
2022/04/13 04:40:44;;;;;;;4.18;3.72;;;;;;;11.83;74.16;98413.13;4965047;28;104364;-71
2022/04/13 04:43:12;;;;;;;4.20;3.72;;;;;;;11.85;73.90;98421.78;4996783;28;103317;-72
2022/04/13 04:45:40;;;;;;;4.80;4.07;;;;;;;11.72;73.69;98418.47;4995831;28;103188;-64
2022/04/13 04:48:09;;;;;;;5.80;5.03;;;;;;;11.25;75.81;98422.25;4972642;28;104429;-70
2022/04/13 04:50:37;;;;;;;4.50;4.10;;;;;;;11.44;77.08;98418.97;4995910;28;102663;-64
2022/04/13 04:53:05;;;;;;;5.60;5.07;;;;;;;10.93;79.80;98423.91;4993669;28;104148;-71
2022/04/13 04:55:34;;;;;;;5.53;4.20;;;;;;;11.19;78.63;98419.25;4994277;28;103234;-64
2022/04/13 04:58:03;;;;;;;4.40;4.00;;;;;;;11.43;77.54;98420.75;4979848;28;103231;-64
2022/04/13 05:00:35;;;;;;;4.72;4.32;;;;;;;11.73;75.68;98416.66;4992793;28;102686;-65
2022/04/13 05:03:03;;;;;;;5.90;4.95;;;;;;;11.23;78.97;98440.00;4995587;28;103452;-64
2022/04/13 05:05:35;;;;;;;6.10;5.00;;;;;;;11.09;78.87;98431.50;4966187;28;103245;-65
2022/04/13 05:08:03;;;;;;;7.13;5.35;;;;;;;10.70;82.66;98433.63;4992870;28;102560;-65
2022/04/13 05:10:31;;;;;;;7.93;4.70;;;;;;;11.27;79.71;98437.97;4996151;28;104219;-65
2022/04/13 05:12:59;;;;;;;10.75;6.10;;;;;;;10.85;81.50;98429.81;4982295;28;103292;-65
2022/04/13 05:15:27;;;;;;;4.13;3.70;;;;;;;11.51;79.65;98438.66;4979371;28;103327;-64
2022/04/13 05:17:55;;;;;;;5.50;3.78;;;;;;;11.87;77.20;98429.59;4969675;28;102834;-64
2022/04/13 05:20:24;;;;;;;6.30;4.03;;;;;;;11.67;78.71;98433.00;4985083;28;102729;-65
2022/04/13 05:22:55;;;;;;;6.88;4.68;;;;;;;11.56;79.06;98437.31;4991512;28;103343;-65
2022/04/13 05:25:24;;;;;;;7.05;4.47;;;;;;;11.72;78.34;98436.97;4996239;28;103128;-65
2022/04/13 05:27:52;;;;;;;6.07;4.80;;;;;;;11.66;78.57;98440.09;4991418;28;102871;-65
2022/04/13 05:30:20;;;;;;;3.78;3.40;;;;;;;11.96;78.11;98440.25;4989609;28;102755;-64
2022/04/13 05:32:50;;;;;;;5.50;4.60;;;;;;;12.09;77.11;98445.41;4990049;28;105157;-65
2022/04/13 05:35:18;;;;;;;5.45;4.00;;;;;;;12.38;75.65;98450.94;4982537;28;104241;-64
2022/04/13 05:37:46;;;;;;;5.07;4.07;;;;;;;12.51;75.10;98447.13;4992446;28;102741;-64
2022/04/13 05:40:16;;;;;;;5.55;4.30;;;;;;;12.49;75.11;98445.59;4966159;28;103230;-64
2022/04/13 05:42:44;;;;;;;5.50;4.57;;;;;;;12.67;74.61;98458.13;4984542;28;104007;-65
2022/04/13 05:45:14;;;;;;;7.25;5.80;;;;;;;12.74;73.18;98448.66;4992249;28;103246;-65
2022/04/13 05:47:43;;;;;;;7.15;5.70;;;;;;;12.76;73.04;98456.50;4991192;28;102706;-64
2022/04/13 05:50:11;;;;;;;5.55;5.05;;;;;;;13.01;72.10;98453.44;4992934;28;104754;-65
2022/04/13 05:52:40;;;;;;;7.35;5.78;;;;;;;13.12;72.17;98464.00;4988503;28;104427;-71
2022/04/13 05:55:09;;;;;;;5.00;4.50;;;;;;;13.31;71.30;98463.22;4994254;28;103366;-72
2022/04/13 05:57:38;;;;;;;4.90;4.40;;;;;;;13.51;70.48;98464.13;4990425;28;102978;-64
2022/04/13 06:00:10;;;;;;;5.70;4.70;;;;;;;13.63;70.20;98468.38;4991277;28;102638;-65
2022/04/13 06:02:39;;;;;;;6.35;5.60;;;;;;;13.56;70.66;98467.25;4981419;28;103689;-65
2022/04/13 06:05:08;;;;;;;6.35;5.47;;;;;;;13.74;69.65;98470.94;4993530;28;103315;-72
2022/04/13 06:07:37;;;;;;;7.57;5.60;;;;;;;13.71;69.99;98473.84;4973945;28;103195;-64
2022/04/13 06:10:06;;;;;;;7.53;5.70;;;;;;;13.76;69.30;98479.59;4989094;28;104480;-65
2022/04/13 06:12:34;;;;;;;7.82;6.35;;;;;;;13.79;69.84;98479.31;4985300;28;103954;-65
2022/04/13 06:15:05;;;;;;;7.75;6.10;;;;;;;13.77;70.03;98475.97;4987502;28;104275;-65
2022/04/13 06:17:33;;;;;;;6.05;5.38;;;;;;;14.14;69.23;98477.00;4982890;28;104117;-65
2022/04/13 06:20:01;;;;;;;7.63;5.38;;;;;;;14.22;69.12;98479.81;4990831;28;103775;-65
2022/04/13 06:22:32;;;;;;;10.38;6.43;;;;;;;13.99;69.65;98480.19;4991425;28;103294;-64
2022/04/13 06:25:02;;;;;;;6.13;5.53;;;;;;;14.25;68.79;98482.19;4971539;28;103214;-65
2022/04/13 06:27:30;;;;;;;6.43;5.33;;;;;;;14.60;68.26;98478.16;4990861;28;103265;-71
2022/04/13 06:29:58;;;;;;;8.07;6.10;;;;;;;14.54;68.18;98486.72;4991992;28;103370;-72
2022/04/13 06:32:33;;;;;;;7.60;6.07;;;;;;;14.69;67.53;98474.66;4990765;28;104477;-72
2022/04/13 06:35:01;;;;;;;8.37;6.10;;;;;;;14.67;67.95;98481.94;4994172;28;103207;-72
2022/04/13 06:37:36;;;;;;;6.90;6.00;;;;;;;14.63;68.09;98485.84;4991842;28;102770;-64
2022/04/13 06:40:05;;;;;;;8.27;5.70;;;;;;;14.63;68.24;98491.16;4975156;28;104045;-65
2022/04/13 06:42:33;;;;;;;5.70;5.18;;;;;;;14.91;66.48;98493.78;5007420;28;103221;-64
2022/04/13 06:45:04;;;;;;;7.40;6.10;;;;;;;15.02;66.98;98498.09;5010891;28;103251;-65
2022/04/13 06:47:34;;;;;;;5.93;4.83;;;;;;;15.38;65.70;98491.97;5005557;28;102886;-71
2022/04/13 06:50:02;;;;;;;7.53;5.80;;;;;;;15.51;65.68;98487.22;5010944;28;104144;-64
2022/04/13 06:52:33;;;;;;;9.02;6.28;;;;;;;14.99;66.38;98495.72;5012263;28;104032;-65
2022/04/13 06:55:01;;;;;;;6.07;5.43;;;;;;;15.40;65.98;98497.16;5007500;28;103353;-64
2022/04/13 06:57:30;;;;;;;7.65;5.82;;;;;;;15.47;65.48;98503.59;4992482;28;102685;-72
2022/04/13 07:00:01;;;;;;;8.20;5.97;;;;;;;15.60;64.99;98499.66;5012204;28;102677;-72
2022/04/13 07:02:29;;;;;;;5.57;4.95;;;;;;;15.96;64.90;98497.06;5007895;28;103268;-72
2022/04/13 07:04:58;;;;;;;8.98;5.85;;;;;;;15.90;64.85;98505.66;4993549;28;104257;-72
2022/04/13 07:07:27;;;;;;;7.83;5.27;;;;;;;16.16;63.09;98502.13;5015641;28;102986;-72
2022/04/13 07:09:55;;;;;;;7.23;5.43;;;;;;;16.10;62.21;98508.06;5014803;28;103902;-64
2022/04/13 07:12:23;;;;;;;5.93;4.80;;;;;;;16.14;62.96;98516.59;5017351;28;103396;-64
2022/04/13 07:14:51;;;;;;;6.73;5.60;;;;;;;16.09;62.78;98513.53;4991499;28;103451;-64
2022/04/13 07:17:19;;;;;;;9.95;6.13;;;;;;;16.39;61.95;98507.03;5015133;28;102583;-65
2022/04/13 07:19:47;;;;;;;8.55;5.40;;;;;;;16.50;62.30;98504.97;4989621;28;104612;-72
2022/04/13 07:22:17;;;;;;;9.18;5.95;;;;;;;16.66;61.93;98507.81;5012399;28;102636;-72
2022/04/13 07:24:44;;;;;;;7.88;5.35;;;;;;;16.91;61.21;98506.19;5010609;28;103344;-65
2022/04/13 07:27:13;;;;;;;6.53;4.82;;;;;;;17.13;60.07;98502.16;5008552;28;102680;-72
2022/04/13 07:29:41;;;;;;;6.85;5.55;;;;;;;17.03;59.51;98501.44;4997758;28;104190;-72
2022/04/13 07:32:09;;;;;;;6.70;5.30;;;;;;;16.87;61.16;98501.31;5007143;28;103299;-72
2022/04/13 07:34:37;;;;;;;5.22;4.72;;;;;;;17.58;59.41;98502.81;5015299;28;103194;-72
2022/04/13 07:37:05;;;;;;;9.93;5.57;;;;;;;17.68;58.94;98503.53;5009336;28;102774;-72
2022/04/13 07:39:35;;;;;;;9.18;5.50;;;;;;;18.14;57.71;98507.53;4995317;28;102698;-72
2022/04/13 07:42:03;;;;;;;5.60;4.60;;;;;;;18.35;57.02;98513.28;5007539;28;103320;-72
2022/04/13 07:44:31;;;;;;;8.30;5.25;;;;;;;18.36;56.60;98509.59;5007163;28;103242;-72
2022/04/13 07:47:21;;;;;;;7.03;5.50;;;;;;;17.98;55.73;98510.16;5009606;28;102800;-72
2022/04/13 07:49:49;;;;;;;4.88;4.38;;;;;;;18.77;54.43;98513.19;5015409;28;102706;-72
2022/04/13 07:52:17;;;;;;;7.43;4.93;;;;;;;19.23;54.09;98517.00;5011905;28;104087;-72
2022/04/13 07:54:47;;;;;;;8.30;5.80;;;;;;;17.58;55.69;98518.81;4986765;28;104239;-71
2022/04/13 07:57:15;;;;;;;6.57;5.20;;;;;;;18.78;54.86;98512.16;5017220;28;103835;-72
2022/04/13 07:59:44;;;;;;;6.45;5.40;;;;;;;19.37;53.74;98515.50;4990658;28;103947;-72
2022/04/13 08:02:12;;;;;;;7.47;5.50;;;;;;;19.42;52.79;98513.16;5005616;28;103710;-72
2022/04/13 08:04:41;;;;;;;6.80;5.20;;;;;;;19.13;53.04;98515.50;5007907;28;103151;-73
2022/04/13 08:07:11;;;;;;;7.03;4.65;;;;;;;19.72;53.25;98524.97;4995702;28;102723;-73
2022/04/13 08:09:39;;;;;;;5.93;4.53;;;;;;;20.32;51.68;98525.25;4990020;28;104040;-73
2022/04/13 08:12:09;;;;;;;7.93;4.55;;;;;;;20.85;49.50;98524.38;5008251;28;103909;-73
2022/04/13 08:14:37;;;;;;;10.17;5.43;;;;;;;20.35;49.47;98517.66;4992744;28;102674;-72
2022/04/13 08:17:06;;;;;;;8.32;5.20;;;;;;;19.95;52.50;98531.25;4989591;28;103109;-64
2022/04/13 08:19:34;;;;;;;8.95;5.30;;;;;;;20.20;50.17;98536.34;5007181;28;102820;-64
2022/04/13 08:22:02;;;;;;;7.55;4.53;;;;;;;21.12;50.15;98531.91;4989724;28;103201;-64
2022/04/13 08:24:30;;;;;;;6.55;4.40;;;;;;;21.41;48.19;98525.75;5000827;28;103184;-65
2022/04/13 08:26:59;;;;;;;6.00;4.80;;;;;;;21.94;48.36;98529.06;5010517;28;102731;-65
2022/04/13 08:29:29;;;;;;;5.97;4.53;;;;;;;22.23;47.25;98528.16;4994184;28;102792;-64
2022/04/13 08:31:57;;;;;;;10.63;5.10;;;;;;;21.93;47.01;98531.91;5012232;28;103303;-65
2022/04/13 08:34:25;;;;;;;6.90;4.60;;;;;;;22.28;45.60;98535.69;5010016;28;103020;-65
2022/04/13 08:36:53;;;;;;;5.57;4.40;;;;;;;22.16;46.02;98535.31;4984681;28;103019;-65
2022/04/13 08:39:21;;;;;;;6.97;4.65;;;;;;;22.38;47.40;98536.19;5009480;28;102687;-65
2022/04/13 08:41:51;;;;;;;6.68;4.60;;;;;;;22.51;46.99;98539.88;5010211;28;103324;-64
2022/04/13 08:44:28;;;;;;;5.72;4.00;;;;;;;22.70;45.13;98540.31;5010902;28;103207;-64
2022/04/13 08:47:02;;;;;;;6.90;4.00;;;;;;;21.44;44.84;98541.50;5005816;28;102684;-72
2022/04/13 08:49:34;;;;;;;8.68;4.07;;;;;;;21.54;44.97;98531.31;5010279;28;104017;-72
2022/04/13 08:52:05;;;;;;;5.55;4.35;;;;;;;22.04;46.25;98542.19;5014352;28;103723;-72
2022/04/13 08:54:41;;;;;;;4.67;3.40;;;;;;;23.09;44.29;98532.63;5011422;28;104087;-72
2022/04/13 08:57:11;;;;;;;6.40;3.80;;;;;;;23.15;44.08;98534.56;5011454;28;102932;-72
2022/04/13 08:59:56;;;;;;;10.48;3.88;;;;;;;23.81;43.48;98535.03;5013329;28;103770;-64
2022/04/13 09:02:52;;;;;;;5.70;3.60;;;;;;;23.53;43.87;98535.91;5010671;28;104024;-64
2022/04/13 09:05:24;;;;;;;6.07;4.40;;;;;;;23.09;42.37;98530.78;5010216;28;103177;-65
2022/04/13 09:08:02;;;;;;;7.57;4.10;;;;;;;22.09;44.75;98539.78;5011828;28;102653;-71
2022/04/13 09:10:33;;;;;;;7.03;4.10;;;;;;;21.95;45.03;98530.69;4988009;28;103597;-64
2022/04/13 09:13:02;;;;;;;6.00;3.85;;;;;;;22.37;44.12;98539.94;5007211;28;104346;-71
2022/04/13 09:15:32;;;;;;;5.28;3.83;;;;;;;22.85;43.03;98528.47;4987161;28;103963;-71
2022/04/13 09:18:01;;;;;;;7.00;4.13;;;;;;;22.83;43.35;98540.44;5009259;28;103017;-65
2022/04/13 09:20:32;;;;;;;6.20;3.95;;;;;;;22.82;44.82;98536.13;5005071;28;103479;-65
2022/04/13 09:23:01;;;;;;;6.13;4.13;;;;;;;22.76;43.31;98532.31;5013680;28;103261;-66
2022/04/13 09:25:31;;;;;;;6.30;3.50;;;;;;;22.31;42.77;98529.94;5014533;28;103067;-65
2022/04/13 09:28:01;;;;;;;9.27;3.70;;;;;;;23.15;43.11;98526.47;5009252;28;102624;-71
2022/04/13 09:30:32;;;;;;;5.47;3.40;;;;;;;23.83;42.23;98533.81;5013474;28;104159;-73
2022/04/13 09:33:03;;;;;;;5.30;3.33;;;;;;;24.78;42.79;98534.66;5009058;28;104368;-76
2022/04/13 09:35:33;;;;;;;7.07;3.65;;;;;;;23.80;42.74;98530.69;5012825;28;103274;-71
2022/04/13 09:38:02;;;;;;;7.40;3.77;;;;;;;24.51;41.12;98532.06;4993252;28;103103;-72
2022/04/13 09:40:32;;;;;;;9.40;4.65;;;;;;;24.79;43.03;98525.53;5004921;28;104246;-65
2022/04/13 09:43:10;;;;;;;6.22;3.90;;;;;;;25.15;41.87;98527.03;5007820;28;104211;-65
2022/04/13 09:45:41;;;;;;;4.55;3.50;;;;;;;25.70;39.29;98523.06;5006667;28;103233;-65
2022/04/13 09:48:12;;;;;;;6.45;4.13;;;;;;;25.69;40.85;98527.63;5010165;28;103169;-66
2022/04/13 09:50:44;;;;;;;5.45;4.00;;;;;;;25.48;40.17;98525.19;5005204;28;103729;-66
2022/04/13 09:53:14;;;;;;;7.10;4.13;;;;;;;23.65;41.64;98531.66;4984336;28;104099;-66
2022/04/13 09:55:44;;;;;;;6.13;4.15;;;;;;;24.22;41.37;98533.25;5000423;28;103502;-65
2022/04/13 09:58:13;;;;;;;5.20;3.70;;;;;;;24.83;42.40;98527.81;4999476;28;102866;-66
2022/04/13 10:00:42;;;;;;;5.18;3.70;;;;;;;25.15;40.49;98524.34;5004176;28;103228;-66
2022/04/13 10:03:17;;;;;;;6.63;4.18;;;;;;;24.01;42.08;98536.00;4998892;28;103356;-66
2022/04/13 10:05:46;;;;;;;6.57;3.35;;;;;;;24.09;42.00;98527.72;5002300;28;103268;-66
2022/04/13 10:08:15;;;;;;;7.30;3.30;;;;;;;24.18;39.95;98519.31;4983254;28;103030;-65
2022/04/13 10:10:45;;;;;;;3.95;2.50;;;;;;;24.49;39.94;98520.66;4994214;28;103264;-68
2022/04/13 10:13:30;;;;;;;3.92;2.35;;;;;;;25.07;38.21;98511.00;4972243;28;104600;-67
2022/04/13 10:15:59;;;;;;;6.68;2.88;;;;;;;23.75;39.75;98517.78;4987965;28;103297;-67
2022/04/13 10:18:31;;;;;;;4.03;2.22;;;;;;;24.62;38.48;98518.81;4989831;28;103186;-67
2022/04/13 10:20:59;;;;;;;4.10;2.30;;;;;;;24.92;35.96;98505.81;4975858;28;102754;-67
2022/04/13 10:23:40;;;;;;;4.07;2.40;;;;;;;25.51;37.00;98518.53;4986719;28;103269;-67
2022/04/13 10:26:10;;;;;;;4.85;2.30;;;;;;;25.80;36.39;98502.63;4974072;28;103075;-67
2022/04/13 10:28:48;;;;;;;6.10;2.53;;;;;;;24.82;37.65;98501.84;4984245;28;102785;-67
2022/04/13 10:31:17;;;;;;;5.80;2.80;;;;;;;23.74;37.96;98504.53;5002660;28;102859;-68
2022/04/13 10:33:51;;;;;;;4.45;2.55;;;;;;;24.88;36.30;98503.72;4999676;28;104102;-67
2022/04/13 10:36:20;;;;;;;3.45;2.13;;;;;;;25.48;35.52;98500.00;4996832;28;103227;-67
2022/04/13 10:38:49;;;;;;;3.03;2.15;;;;;;;25.87;34.72;98506.19;5007668;28;103094;-73
2022/04/13 10:41:20;;;;;;;4.07;2.23;;;;;;;26.33;37.31;98497.88;4996890;28;102878;-73
2022/04/13 10:43:50;;;;;;;6.47;3.00;;;;;;;24.59;37.62;98508.41;4995482;28;104007;-73
2022/04/13 10:46:20;;;;;;;7.93;2.85;;;;;;;24.03;37.48;98513.16;4997313;28;103392;-73
2022/04/13 10:48:55;;;;;;;6.60;2.50;;;;;;;25.24;37.34;98507.69;4964843;28;103316;-73
2022/04/13 10:51:30;;;;;;;4.72;2.35;;;;;;;25.39;35.21;98493.97;4990261;28;102855;-73
2022/04/13 10:54:07;;;;;;;5.82;2.55;;;;;;;24.95;34.03;98512.69;4983649;28;104204;-74
2022/04/13 10:56:38;;;;;;;6.93;2.60;;;;;;;25.08;34.53;98508.13;4993721;28;103214;-73
2022/04/13 10:59:14;;;;;;;6.63;2.50;;;;;;;24.79;35.38;98503.91;5008684;28;102777;-73
2022/04/13 11:01:46;;;;;;;5.33;2.40;;;;;;;25.02;34.70;98498.13;4994362;28;104031;-73
2022/04/13 11:04:17;;;;;;;4.70;2.38;;;;;;;24.90;34.83;98505.16;4998276;28;104080;-71
2022/04/13 11:06:47;;;;;;;6.93;2.43;;;;;;;23.81;35.76;98497.28;5003343;28;104278;-71
2022/04/13 11:09:21;;;;;;;3.70;2.03;;;;;;;24.98;36.53;98491.50;4980244;28;102720;-72
2022/04/13 11:11:50;;;;;;;5.75;2.13;;;;;;;25.61;33.57;98494.56;4958935;28;103095;-71
2022/04/13 11:14:19;;;;;;;3.33;1.63;;;;;;;26.12;34.06;98489.22;5003042;28;103954;-71
2022/04/13 11:16:47;;;;;;;5.28;2.20;;;;;;;24.69;36.32;98502.63;4998000;28;103226;-72
2022/04/13 11:19:21;;;;;;;5.70;2.45;;;;;;;24.13;36.58;98496.66;4983663;28;102665;-71
2022/04/13 11:22:19;;;;;;;6.32;2.38;;;;;;;24.95;36.81;98497.31;5002529;28;104389;-71
2022/04/13 11:24:56;;;;;;;7.50;2.20;;;;;;;24.90;36.03;98493.56;4948843;28;104379;-71
2022/04/13 11:27:25;;;;;;;5.80;2.17;;;;;;;24.55;35.62;98501.78;4989270;28;103211;-71
2022/04/13 11:30:04;;;;;;;5.70;2.00;;;;;;;25.66;33.59;98495.59;5005023;28;103009;-71
2022/04/13 11:32:34;;;;;;;7.97;2.30;;;;;;;24.46;36.71;98497.59;4993881;28;104037;-71
2022/04/13 11:35:04;;;;;;;6.30;2.10;;;;;;;24.29;36.28;98501.69;5004096;28;103331;-72